createdAt,value
2023-12-13T00:07:23.792Z,4.17
2023-12-13T00:17:24.875Z,5.68
2023-12-13T00:27:25.134Z,5.88
2023-12-13T00:37:26.841Z,6.07
2023-12-13T00:47:27.113Z,6.06
2023-12-13T00:57:26.155Z,6.4
2023-12-13T01:07:36.003Z,5.91
2023-12-13T01:17:46.020Z,6.18
2023-12-13T01:37:47.857Z,6.79
2023-12-13T01:47:57.743Z,5.91
2023-12-13T01:58:07.715Z,6
2023-12-13T02:08:17.417Z,6.24
2023-12-13T02:18:27.347Z,6.11
2023-12-13T02:28:37.301Z,6.7
2023-12-13T02:38:37.266Z,6.42
2023-12-13T02:58:39.511Z,6.23
2023-12-13T03:08:49.424Z,7.13
2023-12-13T03:18:59.563Z,8.34
2023-12-13T03:28:59.529Z,8.55
2023-12-13T03:39:00.447Z,7.87
2023-12-13T03:49:00.763Z,7.54
2023-12-13T04:09:03.032Z,6.78
2023-12-13T04:19:02.977Z,6.28
2023-12-13T04:29:13.022Z,3.76
2023-12-13T04:39:12.969Z,6.34
2023-12-13T04:49:23.038Z,6.35
2023-12-13T04:59:23.124Z,6.8
2023-12-13T05:19:28.582Z,6.32
2023-12-13T05:39:30.521Z,6.32
2023-12-13T05:49:44.377Z,6.15
2023-12-13T06:09:46.815Z,5.58
2023-12-13T06:29:51.030Z,8.33
2023-12-13T06:39:52.343Z,7.42
2023-12-13T06:50:00.354Z,6.35
2023-12-13T07:00:00.396Z,8.19
2023-12-13T07:20:07.421Z,4.31
2023-12-13T07:30:11.062Z,4.57
2023-12-13T07:40:11.429Z,4.64
2023-12-13T07:50:12.993Z,5.62
2023-12-13T08:00:14.063Z,5.87
2023-12-13T08:10:17.835Z,4.86
2023-12-13T08:20:34.191Z,2.42
2023-12-13T08:30:24.960Z,2.92
2023-12-13T08:40:26.604Z,2.23
2023-12-13T08:50:26.788Z,4.02
2023-12-13T09:00:34.089Z,3.06
2023-12-13T09:20:40.906Z,1.16
2023-12-13T09:30:42.330Z,2.15
2023-12-13T09:40:42.772Z,1.26
2023-12-13T09:50:47.670Z,1.12
2023-12-13T10:00:49.193Z,1.61
2023-12-13T10:10:52.185Z,1.8
2023-12-13T10:20:56.245Z,2.56
2023-12-13T10:30:59.653Z,1.22
2023-12-13T10:41:03.343Z,3.43
2023-12-13T10:51:11.278Z,1.36
2023-12-13T11:01:14.132Z,1.41
2023-12-13T11:11:20.215Z,1.67
2023-12-13T11:21:28.022Z,1.7
2023-12-13T11:31:35.668Z,1.15
2023-12-13T11:41:38.658Z,1.31
2023-12-13T11:51:41.447Z,0.82
2023-12-13T12:01:51.002Z,1.74
2023-12-13T12:12:00.021Z,1.08
2023-12-13T12:22:05.970Z,0.87
2023-12-13T12:32:09.432Z,0.96
2023-12-13T12:42:18.261Z,1.04
2023-12-13T12:52:19.969Z,1.07
2023-12-13T13:02:24.012Z,1.01
2023-12-13T13:12:27.372Z,0.88
2023-12-13T13:22:27.408Z,1.17
2023-12-13T13:32:31.973Z,1.71
2023-12-13T13:42:32.354Z,2.32
2023-12-13T13:52:32.773Z,1.23
2023-12-13T14:02:32.870Z,1.74
2023-12-13T14:12:34.206Z,1.17
2023-12-13T14:22:34.653Z,0.77
2023-12-13T14:32:34.871Z,2.16
2023-12-13T14:42:44.081Z,1.14
2023-12-13T14:52:45.685Z,1.45
2023-12-13T15:02:45.961Z,0.94
2023-12-13T15:12:46.540Z,0.84
2023-12-13T15:22:52.202Z,0.78
2023-12-13T15:32:53.585Z,0.91
2023-12-13T15:43:44.549Z,0.99
2023-12-13T15:53:02.882Z,0.63
2023-12-13T16:03:03.066Z,0.75
2023-12-13T16:13:04.616Z,0.87
2023-12-13T16:23:04.907Z,0.93
2023-12-13T16:33:05.182Z,0.75
2023-12-13T16:43:06.335Z,0.82
2023-12-13T16:53:08.332Z,0.93
2023-12-13T17:03:42.712Z,0.76
2023-12-13T17:13:39.577Z,1.12
2023-12-13T17:23:58.985Z,1.14
2023-12-13T17:33:54.591Z,1.04
2023-12-13T17:43:59.505Z,0.76
2023-12-13T17:54:18.366Z,0.84
2023-12-13T18:14:56.937Z,1.17
2023-12-13T18:24:24.535Z,1.12
2023-12-13T18:34:27.107Z,1.1
2023-12-13T18:44:09.475Z,1.08
2023-12-13T18:54:15.062Z,0.74
2023-12-13T19:04:27.236Z,1.3
2023-12-13T19:14:23.674Z,1.16
2023-12-13T19:24:23.718Z,1.07
2023-12-13T19:34:30.375Z,0.97
2023-12-13T19:44:45.600Z,1.3
2023-12-13T19:54:37.792Z,0.93
2023-12-13T20:04:42.590Z,0.72
2023-12-13T20:14:45.238Z,0.89
2023-12-13T20:34:51.974Z,1.16
2023-12-13T20:45:05.793Z,1.05
2023-12-13T20:55:20.582Z,0.86
2023-12-13T21:05:30.372Z,1.43
2023-12-13T21:15:31.593Z,0.61
2023-12-13T21:25:28.755Z,5.01
2023-12-13T21:35:58.741Z,1.34
2023-12-13T21:45:29.684Z,0.85
2023-12-13T21:55:28.506Z,0.81
2023-12-13T22:05:28.911Z,0.77
2023-12-13T22:15:32.428Z,0.73
2023-12-13T22:35:35.160Z,0.53
2023-12-13T22:55:37.960Z,0.41
2023-12-13T23:15:40.457Z,0.52
2023-12-13T23:25:40.694Z,0.52
2023-12-13T23:45:43.202Z,0.46
2023-12-13T23:55:43.473Z,0.44
